createdAt,value
2018-07-17T00:00:01.375Z,18.90
2018-07-17T00:02:30.174Z,18.90
2018-07-17T00:04:58.979Z,18.90
2018-07-17T00:07:27.766Z,18.90
2018-07-17T00:09:56.583Z,18.90
2018-07-17T00:12:25.363Z,18.90
2018-07-17T00:14:54.159Z,18.80
2018-07-17T00:17:22.963Z,18.80
2018-07-17T00:19:51.799Z,18.70
2018-07-17T00:22:20.554Z,18.70
2018-07-17T00:24:49.354Z,18.70
2018-07-17T00:27:18.146Z,18.70
2018-07-17T00:29:47.279Z,18.60
2018-07-17T00:32:16.044Z,18.70
2018-07-17T00:34:44.850Z,18.60
2018-07-17T00:37:13.655Z,18.60
2018-07-17T00:42:11.046Z,18.60
2018-07-17T00:44:39.851Z,18.50
2018-07-17T00:47:08.648Z,18.50
2018-07-17T00:49:37.530Z,18.40
2018-07-17T00:52:06.326Z,18.40
2018-07-17T00:54:35.208Z,18.40
2018-07-17T00:57:04.011Z,18.30
2018-07-17T00:59:32.810Z,18.30
2018-07-17T01:02:07.154Z,18.20
2018-07-17T01:04:41.322Z,18.20
2018-07-17T01:07:15.800Z,18.10
2018-07-17T01:09:50.013Z,18.10
2018-07-17T01:12:18.138Z,18.00
2018-07-17T01:14:52.622Z,18.00
2018-07-17T01:17:21.945Z,18.00
2018-07-17T01:19:50.745Z,17.90
2018-07-17T01:22:19.618Z,17.90
2018-07-17T01:24:48.413Z,17.90
2018-07-17T01:27:17.201Z,17.80
2018-07-17T01:29:45.997Z,17.80
2018-07-17T01:32:14.799Z,17.80
2018-07-17T01:34:43.657Z,17.80
2018-07-17T01:37:12.450Z,17.70
2018-07-17T01:39:41.246Z,17.70
2018-07-17T01:42:10.047Z,17.70
2018-07-17T01:44:38.859Z,17.70
2018-07-17T01:47:07.645Z,17.70
2018-07-17T01:49:36.447Z,17.60
2018-07-17T01:52:06.121Z,17.70
2018-07-17T01:54:34.922Z,17.60
2018-07-17T01:57:03.705Z,17.60
2018-07-17T01:59:32.486Z,17.60
2018-07-17T02:02:01.287Z,17.70
2018-07-17T02:04:30.080Z,17.60
2018-07-17T02:06:58.878Z,17.60
2018-07-17T02:09:27.672Z,17.60
2018-07-17T02:11:56.474Z,17.60
2018-07-17T02:14:25.272Z,17.60
2018-07-17T02:16:54.067Z,17.50
2018-07-17T02:19:22.855Z,17.50
2018-07-17T02:21:51.650Z,17.50
2018-07-17T02:24:20.437Z,17.50
2018-07-17T02:26:49.258Z,17.60
2018-07-17T02:29:18.045Z,17.60
2018-07-17T02:31:47.178Z,17.60
2018-07-17T02:34:15.972Z,17.50
2018-07-17T02:36:44.753Z,17.60
2018-07-17T02:39:13.549Z,17.60
2018-07-17T02:41:42.346Z,17.60
2018-07-17T02:44:11.158Z,17.60
2018-07-17T02:46:39.950Z,17.70
2018-07-17T02:49:08.744Z,17.70
2018-07-17T02:51:37.548Z,17.70
2018-07-17T02:54:06.355Z,17.60
2018-07-17T02:56:35.159Z,17.50
2018-07-17T02:59:03.980Z,17.40
2018-07-17T03:01:32.766Z,17.40
2018-07-17T03:04:01.556Z,17.40
2018-07-17T03:06:30.354Z,17.40
2018-07-17T03:08:59.145Z,17.30
2018-07-17T03:11:27.960Z,17.30
2018-07-17T03:13:56.742Z,17.30
2018-07-17T03:16:25.534Z,17.30
2018-07-17T03:18:54.327Z,17.30
2018-07-17T03:21:23.118Z,17.30
2018-07-17T03:23:51.899Z,17.40
2018-07-17T03:26:20.703Z,17.40
2018-07-17T03:28:49.508Z,17.40
2018-07-17T03:31:18.298Z,17.40
2018-07-17T03:33:47.086Z,17.50
2018-07-17T03:36:15.892Z,17.50
2018-07-17T03:38:44.672Z,17.50
2018-07-17T03:41:13.475Z,17.50
2018-07-17T03:43:42.263Z,17.60
2018-07-17T03:46:11.067Z,17.60
2018-07-17T03:48:39.880Z,17.60
2018-07-17T03:51:09.310Z,17.80
2018-07-17T03:53:38.102Z,18.00
2018-07-17T03:56:06.920Z,18.10
2018-07-17T03:58:35.723Z,18.30
2018-07-17T04:01:05.347Z,18.40
2018-07-17T04:03:34.134Z,18.60
2018-07-17T04:06:02.926Z,18.70
2018-07-17T04:08:31.724Z,18.90
2018-07-17T04:11:00.526Z,19.10
2018-07-17T04:13:29.476Z,19.30
2018-07-17T04:15:58.155Z,19.50
2018-07-17T04:18:26.947Z,19.70
2018-07-17T04:20:55.747Z,20.00
2018-07-17T04:23:24.531Z,20.20
2018-07-17T04:25:53.374Z,20.40
2018-07-17T04:28:22.170Z,20.60
2018-07-17T04:30:50.963Z,21.00
2018-07-17T04:33:19.773Z,21.10
2018-07-17T04:35:48.564Z,21.40
2018-07-17T04:38:17.431Z,21.60
2018-07-17T04:43:14.696Z,22.00
2018-07-17T04:45:43.488Z,22.20
2018-07-17T04:48:12.307Z,22.50
2018-07-17T04:50:41.103Z,22.80
2018-07-17T04:53:09.903Z,22.90
2018-07-17T04:55:38.688Z,23.00
2018-07-17T04:58:07.486Z,23.20
2018-07-17T05:00:36.297Z,23.40
2018-07-17T05:03:05.246Z,23.50
2018-07-17T05:08:02.630Z,24.10
2018-07-17T05:10:31.431Z,24.40
2018-07-17T05:13:00.274Z,24.70
2018-07-17T05:15:29.238Z,25.10
2018-07-17T05:17:58.034Z,25.50
2018-07-17T05:20:27.002Z,25.90
2018-07-17T05:22:55.830Z,26.30
2018-07-17T05:25:24.601Z,26.70
2018-07-17T05:27:53.470Z,27.20
2018-07-17T05:30:22.254Z,27.80
2018-07-17T05:32:51.134Z,28.40
2018-07-17T05:35:19.950Z,29.00
2018-07-17T05:37:48.714Z,29.70
2018-07-17T05:40:17.525Z,30.60
2018-07-17T05:42:46.311Z,31.40
2018-07-17T05:45:15.112Z,32.70
2018-07-17T05:47:43.894Z,34.30
2018-07-17T05:50:12.962Z,36.00
2018-07-17T05:52:42.095Z,37.30
2018-07-17T05:55:10.882Z,38.10
2018-07-17T05:57:39.687Z,38.90
2018-07-17T06:00:09.200Z,39.20
2018-07-17T06:02:38.022Z,39.60
2018-07-17T06:05:06.919Z,40.30
2018-07-17T06:07:36.128Z,40.80
2018-07-17T06:10:05.055Z,41.40
2018-07-17T06:12:33.846Z,41.30
2018-07-17T06:15:02.627Z,41.20
2018-07-17T06:17:31.427Z,41.50
2018-07-17T06:20:00.268Z,41.20
2018-07-17T06:22:29.012Z,40.80
2018-07-17T06:24:57.916Z,40.80
2018-07-17T06:27:26.651Z,40.50
2018-07-17T06:29:55.498Z,41.10
2018-07-17T06:32:24.243Z,42.10
2018-07-17T06:34:53.027Z,42.80
2018-07-17T06:37:21.870Z,43.50
2018-07-17T06:39:50.672Z,44.00
2018-07-17T06:42:19.854Z,44.20
2018-07-17T06:44:48.870Z,43.60
2018-07-17T06:47:17.788Z,42.80
2018-07-17T06:49:46.550Z,42.50
2018-07-17T06:52:15.338Z,42.60
2018-07-17T06:54:44.151Z,42.70
2018-07-17T06:57:12.945Z,42.60
2018-07-17T06:59:41.881Z,42.10
2018-07-17T07:02:10.706Z,41.40
2018-07-17T07:04:39.493Z,41.30
2018-07-17T07:07:08.278Z,41.00
2018-07-17T07:09:37.074Z,41.30
2018-07-17T07:12:06.176Z,41.30
2018-07-17T07:14:34.963Z,41.40
2018-07-17T07:17:03.764Z,41.40
2018-07-17T07:19:32.570Z,41.30
2018-07-17T07:22:01.483Z,40.30
2018-07-17T07:24:30.283Z,39.90
2018-07-17T07:26:59.081Z,38.50
2018-07-17T07:29:27.874Z,37.50
2018-07-17T07:31:56.724Z,36.70
2018-07-17T07:34:25.527Z,34.80
2018-07-17T07:36:54.358Z,34.30
2018-07-17T07:39:23.136Z,34.60
2018-07-17T07:41:51.931Z,34.90
2018-07-17T07:44:20.745Z,35.00
2018-07-17T07:46:49.538Z,35.30
2018-07-17T07:49:18.340Z,35.60
2018-07-17T07:51:47.119Z,35.60
2018-07-17T07:54:15.925Z,35.60
2018-07-17T07:56:44.714Z,35.80
2018-07-17T07:59:13.506Z,35.90
2018-07-17T08:01:42.298Z,35.70
2018-07-17T08:04:11.094Z,35.50
2018-07-17T08:06:40.088Z,35.60
2018-07-17T08:09:09.265Z,35.30
2018-07-17T08:11:38.250Z,35.30
2018-07-17T08:14:06.983Z,35.50
2018-07-17T08:16:35.783Z,35.30
2018-07-17T08:19:04.590Z,35.10
2018-07-17T08:21:33.386Z,35.20
2018-07-17T08:24:02.188Z,35.30
2018-07-17T08:26:30.987Z,34.60
2018-07-17T08:28:59.830Z,34.70
2018-07-17T08:31:28.606Z,34.80
2018-07-17T08:33:57.403Z,34.70
2018-07-17T08:36:26.178Z,34.60
2018-07-17T08:38:54.990Z,34.40
2018-07-17T08:41:23.779Z,34.10
2018-07-17T08:43:52.583Z,34.00
2018-07-17T08:46:21.379Z,33.50
2018-07-17T08:48:50.273Z,33.70
2018-07-17T08:51:19.273Z,33.60
2018-07-17T08:53:48.098Z,33.50
2018-07-17T08:56:17.046Z,33.60
2018-07-17T08:58:45.847Z,34.10
2018-07-17T09:01:14.655Z,34.70
2018-07-17T09:03:43.434Z,35.00
2018-07-17T09:06:12.230Z,35.30
2018-07-17T09:08:41.045Z,34.50
2018-07-17T09:11:09.854Z,33.90
2018-07-17T09:13:38.634Z,34.00
2018-07-17T09:16:07.480Z,34.50
2018-07-17T09:18:36.650Z,34.30
2018-07-17T09:21:05.852Z,33.60
2018-07-17T09:23:34.834Z,33.10
2018-07-17T09:26:03.644Z,33.60
2018-07-17T09:28:32.430Z,34.40
2018-07-17T09:31:02.330Z,34.80
2018-07-17T09:33:31.850Z,35.10
2018-07-17T09:36:01.039Z,35.40
2018-07-17T09:38:30.318Z,35.70
2018-07-17T09:40:59.123Z,36.00
2018-07-17T09:43:28.005Z,35.10
2018-07-17T09:45:56.802Z,34.90
2018-07-17T09:48:25.798Z,34.60
2018-07-17T09:50:54.585Z,33.70
2018-07-17T09:53:23.455Z,33.80
2018-07-17T09:55:52.255Z,34.10
2018-07-17T09:58:21.060Z,34.50
2018-07-17T10:00:55.427Z,34.50
2018-07-17T10:03:24.219Z,34.70
2018-07-17T10:05:53.014Z,34.70
2018-07-17T10:08:21.813Z,34.70
2018-07-17T10:10:50.618Z,34.70
2018-07-17T10:13:19.402Z,35.00
2018-07-17T10:15:48.202Z,35.20
2018-07-17T10:18:17.068Z,35.50
2018-07-17T10:20:45.873Z,35.20
2018-07-17T10:23:14.657Z,35.20
2018-07-17T10:25:43.470Z,35.10
2018-07-17T10:28:12.278Z,35.10
2018-07-17T10:30:41.079Z,34.50
2018-07-17T10:33:10.610Z,33.90
2018-07-17T10:35:39.393Z,33.60
2018-07-17T10:38:08.186Z,33.70
2018-07-17T10:40:37.351Z,33.80
2018-07-17T10:43:06.395Z,33.90
2018-07-17T10:45:35.579Z,33.60
2018-07-17T10:48:04.586Z,33.60
2018-07-17T10:50:33.384Z,33.60
2018-07-17T10:53:02.258Z,33.60
2018-07-17T10:55:31.054Z,33.40
2018-07-17T10:57:59.930Z,33.30
2018-07-17T11:00:28.726Z,33.20
2018-07-17T11:02:57.514Z,33.10
2018-07-17T11:05:26.315Z,32.50
2018-07-17T11:07:55.110Z,32.40
2018-07-17T11:10:23.972Z,32.50
2018-07-17T11:12:53.079Z,32.30
2018-07-17T11:15:21.969Z,32.10
2018-07-17T11:17:50.886Z,31.80
2018-07-17T11:20:19.666Z,31.60
2018-07-17T11:22:48.443Z,30.90
2018-07-17T11:25:17.238Z,30.80
2018-07-17T11:27:46.040Z,30.80
2018-07-17T11:30:14.870Z,30.80
2018-07-17T11:32:43.773Z,30.80
2018-07-17T11:35:12.558Z,31.00
2018-07-17T11:37:41.363Z,31.00
2018-07-17T11:40:10.150Z,30.90
2018-07-17T11:42:38.942Z,30.80
2018-07-17T11:45:07.812Z,30.60
2018-07-17T11:47:36.705Z,30.30
2018-07-17T11:50:05.791Z,30.20
2018-07-17T11:52:34.603Z,30.30
2018-07-17T11:55:03.381Z,30.50
2018-07-17T11:57:32.186Z,30.60
2018-07-17T12:00:00.975Z,30.50
2018-07-17T12:02:29.770Z,30.30
2018-07-17T12:04:58.713Z,30.20
2018-07-17T12:07:27.511Z,30.00
2018-07-17T12:09:56.334Z,30.10
2018-07-17T12:12:25.140Z,30.10
2018-07-17T12:14:53.968Z,30.10
2018-07-17T12:17:22.884Z,30.10
2018-07-17T12:19:51.730Z,29.90
2018-07-17T12:22:20.478Z,29.80
2018-07-17T12:24:49.348Z,29.60
2018-07-17T12:27:18.135Z,29.70
2018-07-17T12:29:47.011Z,29.70
2018-07-17T12:32:15.801Z,29.80
2018-07-17T12:34:44.683Z,29.90
2018-07-17T12:37:13.505Z,30.10
2018-07-17T12:39:42.366Z,30.20
2018-07-17T12:42:11.265Z,30.10
2018-07-17T12:44:40.142Z,30.00
2018-07-17T12:47:08.948Z,29.90
2018-07-17T12:49:37.738Z,29.80
2018-07-17T12:52:06.565Z,29.80
2018-07-17T12:54:35.673Z,29.70
2018-07-17T12:57:04.510Z,29.80
2018-07-17T12:59:33.425Z,29.80
2018-07-17T13:02:02.277Z,29.80
2018-07-17T13:04:31.159Z,29.90
2018-07-17T13:06:59.970Z,29.80
2018-07-17T13:09:28.758Z,29.70
2018-07-17T13:11:57.634Z,29.70
2018-07-17T13:14:26.520Z,29.70
2018-07-17T13:16:55.318Z,29.60
2018-07-17T13:19:24.106Z,29.60
2018-07-17T13:21:52.903Z,29.60
2018-07-17T13:24:22.268Z,29.60
2018-07-17T13:26:51.062Z,29.70
2018-07-17T13:29:19.918Z,29.70
2018-07-17T13:31:48.950Z,29.60
2018-07-17T13:34:17.750Z,29.70
2018-07-17T13:36:46.634Z,29.80
2018-07-17T13:39:15.484Z,29.80
2018-07-17T13:41:44.811Z,29.70
2018-07-17T13:44:14.008Z,29.70
2018-07-17T13:46:43.146Z,29.70
2018-07-17T13:49:12.482Z,29.70
2018-07-17T13:51:41.492Z,29.60
2018-07-17T13:54:10.750Z,29.60
2018-07-17T13:56:39.834Z,29.60
2018-07-17T13:59:09.120Z,29.50
2018-07-17T14:01:38.184Z,29.60
2018-07-17T14:04:07.834Z,29.50
2018-07-17T14:06:37.155Z,29.40
2018-07-17T14:09:07.985Z,29.30
2018-07-17T14:11:37.359Z,29.20
2018-07-17T14:14:06.503Z,29.20
2018-07-17T14:19:04.770Z,29.30
2018-07-17T14:21:33.942Z,29.30
2018-07-17T14:24:03.092Z,29.40
2018-07-17T14:26:32.173Z,29.40
2018-07-17T14:29:01.416Z,29.30
2018-07-17T14:31:30.591Z,29.20
2018-07-17T14:34:00.057Z,29.30
2018-07-17T14:36:29.543Z,29.20
2018-07-17T14:38:58.550Z,29.20
2018-07-17T14:43:56.689Z,29.10
2018-07-17T14:46:26.019Z,29.10
2018-07-17T14:48:55.384Z,29.20
2018-07-17T14:51:24.625Z,29.20
2018-07-17T14:53:53.801Z,29.20
2018-07-17T14:56:22.960Z,29.20
2018-07-17T14:58:52.111Z,29.10
2018-07-17T15:01:21.463Z,29.10
2018-07-17T15:03:50.247Z,29.20
2018-07-17T15:06:19.064Z,29.20
2018-07-17T15:08:47.946Z,29.20
2018-07-17T15:11:16.747Z,29.20
2018-07-17T15:13:45.542Z,29.20
2018-07-17T15:16:14.321Z,29.30
2018-07-17T15:18:43.193Z,29.20
2018-07-17T15:21:11.982Z,29.20
2018-07-17T15:23:40.779Z,29.20
2018-07-17T15:26:09.599Z,29.20
2018-07-17T15:28:38.389Z,29.10
2018-07-17T15:31:07.187Z,29.10
2018-07-17T15:33:44.993Z,29.10
2018-07-17T15:36:14.843Z,29.10
2018-07-17T15:38:43.638Z,29.10
2018-07-17T15:41:12.566Z,29.10
2018-07-17T15:43:41.334Z,29.10
2018-07-17T15:46:10.211Z,29.10
2018-07-17T15:48:39.092Z,29.10
2018-07-17T15:51:07.983Z,29.00
2018-07-17T15:53:36.877Z,29.00
2018-07-17T15:56:05.754Z,29.00
2018-07-17T15:58:34.563Z,29.00
2018-07-17T16:01:03.372Z,28.90
2018-07-17T16:03:32.170Z,28.90
2018-07-17T16:06:01.101Z,28.80
2018-07-17T16:08:29.846Z,28.80
2018-07-17T16:10:58.647Z,28.70
2018-07-17T16:13:27.640Z,28.70
2018-07-17T16:15:56.267Z,28.80
2018-07-17T16:18:25.085Z,28.70
2018-07-17T16:20:53.870Z,28.70
2018-07-17T16:23:22.695Z,28.80
2018-07-17T16:25:51.491Z,28.80
2018-07-17T16:28:20.281Z,28.80
2018-07-17T16:30:49.095Z,28.70
2018-07-17T16:33:17.992Z,28.70
2018-07-17T16:35:46.795Z,28.70
2018-07-17T16:38:15.631Z,28.60
2018-07-17T16:43:13.015Z,28.50
2018-07-17T16:45:41.820Z,28.40
2018-07-17T16:48:10.628Z,28.40
2018-07-17T16:50:39.430Z,28.40
2018-07-17T16:53:08.234Z,28.40
2018-07-17T16:55:37.039Z,28.40
2018-07-17T16:58:05.899Z,28.30
2018-07-17T17:00:34.674Z,28.30
2018-07-17T17:03:03.546Z,28.20
2018-07-17T17:05:32.423Z,28.20
2018-07-17T17:08:01.227Z,28.20
2018-07-17T17:10:30.240Z,28.20
2018-07-17T17:12:59.054Z,28.20
2018-07-17T17:15:27.855Z,28.20
2018-07-17T17:17:56.683Z,28.10
2018-07-17T17:20:25.554Z,28.20
2018-07-17T17:22:54.349Z,28.10
2018-07-17T17:25:23.152Z,28.10
2018-07-17T17:27:51.934Z,28.10
2018-07-17T17:30:20.739Z,28.00
2018-07-17T17:32:49.647Z,27.90
2018-07-17T17:35:18.395Z,27.90
2018-07-17T17:37:47.173Z,27.80
2018-07-17T17:40:16.068Z,27.70
2018-07-17T17:42:44.850Z,27.70
2018-07-17T17:45:13.638Z,27.60
2018-07-17T17:47:42.451Z,27.70
2018-07-17T17:50:11.254Z,27.60
2018-07-17T17:52:40.042Z,27.50
2018-07-17T17:55:08.851Z,27.50
2018-07-17T17:57:37.874Z,27.50
2018-07-17T18:00:07.009Z,27.50
2018-07-17T18:02:35.923Z,27.50
2018-07-17T18:05:04.987Z,27.40
2018-07-17T18:07:33.792Z,27.30
2018-07-17T18:10:02.784Z,27.20
2018-07-17T18:12:31.583Z,27.20
2018-07-17T18:15:00.430Z,27.10
2018-07-17T18:17:29.485Z,27.10
2018-07-17T18:19:58.267Z,27.00
2018-07-17T18:22:27.069Z,26.90
2018-07-17T18:24:55.911Z,26.90
2018-07-17T18:27:24.695Z,26.90
2018-07-17T18:29:53.492Z,26.80
2018-07-17T18:32:22.340Z,26.70
2018-07-17T18:34:51.127Z,26.60
2018-07-17T18:37:19.914Z,26.60
2018-07-17T18:39:49.159Z,26.50
2018-07-17T18:42:18.047Z,26.40
2018-07-17T18:44:46.747Z,26.30
2018-07-17T18:47:15.555Z,26.20
2018-07-17T18:49:44.338Z,26.10
2018-07-17T18:52:13.161Z,26.00
2018-07-17T18:54:41.964Z,25.80
2018-07-17T18:57:10.854Z,25.70
2018-07-17T18:59:39.615Z,25.60
2018-07-17T19:02:08.506Z,25.50
2018-07-17T19:04:37.306Z,25.40
2018-07-17T19:07:06.098Z,25.30
2018-07-17T19:09:34.953Z,25.20
2018-07-17T19:12:03.766Z,25.10
2018-07-17T19:14:32.559Z,25.10
2018-07-17T19:17:01.450Z,25.00
2018-07-17T19:19:30.137Z,24.90
2018-07-17T19:21:58.930Z,24.90
2018-07-17T19:24:27.723Z,24.80
2018-07-17T19:26:56.576Z,24.70
2018-07-17T19:29:25.471Z,24.70
2018-07-17T19:31:54.270Z,24.60
2018-07-17T19:34:23.062Z,24.60
2018-07-17T19:36:51.857Z,24.50
2018-07-17T19:39:20.639Z,24.40
2018-07-17T19:41:49.442Z,24.40
2018-07-17T19:44:18.239Z,24.30
2018-07-17T19:46:47.040Z,24.30
2018-07-17T19:49:15.822Z,24.30
2018-07-17T19:51:44.633Z,24.30
2018-07-17T19:54:13.428Z,24.30
2018-07-17T19:56:42.246Z,24.20
2018-07-17T19:59:11.033Z,24.20
2018-07-17T20:01:39.835Z,24.20
2018-07-17T20:04:08.622Z,24.20
2018-07-17T20:06:37.427Z,24.20
2018-07-17T20:09:07.102Z,24.10
2018-07-17T20:11:35.922Z,24.10
2018-07-17T20:14:04.737Z,24.10
2018-07-17T20:16:33.594Z,24.10
2018-07-17T20:19:02.377Z,24.10
2018-07-17T20:21:31.174Z,24.10
2018-07-17T20:24:00.068Z,24.10
2018-07-17T20:26:28.943Z,24.10
2018-07-17T20:28:57.664Z,24.10
2018-07-17T20:33:54.947Z,24.10
2018-07-17T20:36:23.742Z,24.20
2018-07-17T20:38:52.591Z,24.20
2018-07-17T20:41:21.386Z,24.20
2018-07-17T20:43:50.176Z,24.20
2018-07-17T20:46:18.970Z,24.20
2018-07-17T20:48:47.766Z,24.20
2018-07-17T20:51:17.543Z,24.20
2018-07-17T20:53:46.334Z,24.20
2018-07-17T20:56:15.131Z,24.20
2018-07-17T20:58:43.945Z,24.10
2018-07-17T21:01:12.714Z,24.10
2018-07-17T21:03:41.507Z,24.10
2018-07-17T21:08:38.790Z,24.10
2018-07-17T21:11:07.623Z,24.20
2018-07-17T21:13:36.418Z,24.30
2018-07-17T21:16:06.114Z,24.30
2018-07-17T21:18:34.915Z,24.30
2018-07-17T21:21:03.721Z,24.40
2018-07-17T21:23:32.507Z,24.40
2018-07-17T21:26:01.307Z,24.40
2018-07-17T21:28:30.098Z,24.40
2018-07-17T21:30:58.893Z,24.40
2018-07-17T21:33:27.686Z,24.40
2018-07-17T21:35:56.532Z,24.40
2018-07-17T21:38:25.290Z,24.30
2018-07-17T21:40:54.074Z,24.20
2018-07-17T21:43:22.874Z,24.20
2018-07-17T21:45:51.666Z,24.10
2018-07-17T21:48:20.480Z,24.00
2018-07-17T21:50:49.262Z,23.90
2018-07-17T21:53:18.059Z,23.80
2018-07-17T21:55:46.846Z,23.80
2018-07-17T21:58:15.658Z,23.70
2018-07-17T22:00:44.450Z,23.50
2018-07-17T22:03:13.249Z,23.50
2018-07-17T22:05:42.074Z,23.40
2018-07-17T22:08:10.857Z,23.30
2018-07-17T22:10:39.654Z,23.30
2018-07-17T22:13:08.461Z,23.30
2018-07-17T22:15:37.253Z,23.20
2018-07-17T22:18:06.159Z,23.20
2018-07-17T22:20:34.958Z,23.10
2018-07-17T22:23:03.755Z,23.10
2018-07-17T22:25:32.546Z,23.00
2018-07-17T22:28:01.363Z,23.00
2018-07-17T22:30:30.355Z,22.90
2018-07-17T22:32:59.183Z,22.90
2018-07-17T22:35:28.117Z,22.90
2018-07-17T22:37:56.910Z,22.90
2018-07-17T22:40:25.722Z,22.80
2018-07-17T22:42:54.510Z,22.70
2018-07-17T22:45:23.306Z,22.70
2018-07-17T22:47:52.093Z,22.70
2018-07-17T22:50:20.892Z,22.60
2018-07-17T22:52:49.683Z,22.50
2018-07-17T22:55:18.463Z,22.50
2018-07-17T22:57:47.257Z,22.50
2018-07-17T23:00:16.044Z,22.40
2018-07-17T23:02:44.838Z,22.40
2018-07-17T23:05:13.771Z,22.40
2018-07-17T23:07:42.563Z,22.40
2018-07-17T23:10:11.365Z,22.30
2018-07-17T23:12:40.171Z,22.30
2018-07-17T23:15:08.967Z,22.30
2018-07-17T23:17:37.793Z,22.30
2018-07-17T23:20:06.573Z,22.30
2018-07-17T23:22:45.890Z,22.30
2018-07-17T23:25:14.674Z,22.30
2018-07-17T23:27:43.472Z,22.20
2018-07-17T23:30:12.268Z,22.20
2018-07-17T23:32:41.052Z,22.10
2018-07-17T23:35:09.867Z,22.10
2018-07-17T23:37:38.655Z,22.00
2018-07-17T23:40:07.477Z,21.90
2018-07-17T23:42:36.275Z,21.90
2018-07-17T23:45:05.163Z,21.80
2018-07-17T23:47:33.954Z,21.80
2018-07-17T23:50:02.773Z,21.70
2018-07-17T23:52:31.576Z,21.60
2018-07-17T23:55:00.365Z,21.60
2018-07-17T23:57:29.162Z,21.50
2018-07-17T23:59:57.961Z,21.40
